createdAt,value
2023-09-23T00:01:43.694Z,5.73
2023-09-23T00:04:12.006Z,6.10
2023-09-23T00:06:42.117Z,6.00
2023-09-23T00:09:12.348Z,6.07
2023-09-23T00:11:42.257Z,6.03
2023-09-23T00:14:11.680Z,5.90
2023-09-23T00:16:39.788Z,5.37
2023-09-23T00:19:10.284Z,5.90
2023-09-23T00:21:39.577Z,5.80
2023-09-23T00:24:10.036Z,5.60
2023-09-23T00:26:38.076Z,5.60
2023-09-23T00:29:06.593Z,5.47
2023-09-23T00:31:35.027Z,5.60
2023-09-23T00:34:04.010Z,7.20
2023-09-23T00:36:33.140Z,6.47
2023-09-23T00:39:04.216Z,5.70
2023-09-23T00:41:34.084Z,5.93
2023-09-23T00:44:06.172Z,5.87
2023-09-23T00:46:36.781Z,7.00
2023-09-23T00:49:09.266Z,6.13
2023-09-23T00:51:39.419Z,6.60
2023-09-23T00:54:15.433Z,6.20
2023-09-23T00:56:45.409Z,6.27
2023-09-23T00:59:18.650Z,6.33
2023-09-23T01:01:53.779Z,6.30
2023-09-23T01:04:22.752Z,6.57
2023-09-23T01:06:50.936Z,5.60
2023-09-23T01:09:21.827Z,5.80
2023-09-23T01:11:52.626Z,6.30
2023-09-23T01:14:22.589Z,6.37
2023-09-23T01:16:51.039Z,6.40
2023-09-23T01:19:19.980Z,6.67
2023-09-23T01:21:50.739Z,6.47
2023-09-23T01:24:26.242Z,8.27
2023-09-23T01:26:54.119Z,7.30
2023-09-23T01:29:24.621Z,6.57
2023-09-23T01:32:08.651Z,7.47
2023-09-23T01:34:37.173Z,6.60
2023-09-23T01:37:06.275Z,6.90
2023-09-23T01:39:36.514Z,6.63
2023-09-23T01:42:05.784Z,7.83
2023-09-23T01:44:34.000Z,8.07
2023-09-23T01:47:02.375Z,7.90
2023-09-23T01:49:33.290Z,7.47
2023-09-23T01:52:03.058Z,7.50
2023-09-23T01:54:31.310Z,7.67
2023-09-23T01:57:00.987Z,7.27
2023-09-23T01:59:29.127Z,6.53
2023-09-23T02:01:57.300Z,7.60
2023-09-23T02:04:27.024Z,7.80
2023-09-23T02:06:56.365Z,8.07
2023-09-23T02:09:24.987Z,8.30
2023-09-23T02:11:55.260Z,7.93
2023-09-23T02:14:24.919Z,7.90
2023-09-23T02:16:53.541Z,7.50
2023-09-23T02:19:22.439Z,7.40
2023-09-23T02:21:52.161Z,6.87
2023-09-23T02:24:20.832Z,7.27
2023-09-23T02:26:49.213Z,7.23
2023-09-23T02:29:18.226Z,6.90
2023-09-23T02:31:50.421Z,8.20
2023-09-23T02:34:20.218Z,7.03
2023-09-23T02:36:48.616Z,7.20
2023-09-23T02:39:18.372Z,6.93
2023-09-23T02:41:47.545Z,7.30
2023-09-23T02:44:20.686Z,6.93
2023-09-23T02:46:54.703Z,7.03
2023-09-23T02:49:24.625Z,7.27
2023-09-23T02:51:53.045Z,6.70
2023-09-23T02:54:21.469Z,6.60
2023-09-23T02:56:51.825Z,6.87
2023-09-23T02:59:27.690Z,6.40
2023-09-23T03:01:59.328Z,6.33
2023-09-23T03:04:32.545Z,6.40
2023-09-23T03:07:02.955Z,6.30
2023-09-23T03:09:33.867Z,7.00
2023-09-23T03:12:04.286Z,7.07
2023-09-23T03:14:37.861Z,8.20
2023-09-23T03:17:08.848Z,8.27
2023-09-23T03:19:39.859Z,8.17
2023-09-23T03:22:09.231Z,7.93
2023-09-23T03:24:37.651Z,7.43
2023-09-23T03:27:07.338Z,7.80
2023-09-23T03:29:35.468Z,8.13
2023-09-23T03:32:03.986Z,7.83
2023-09-23T03:34:33.655Z,7.60
2023-09-23T03:37:10.628Z,7.93
2023-09-23T03:39:42.292Z,6.87
2023-09-23T03:42:10.389Z,7.40
2023-09-23T03:44:39.100Z,7.30
2023-09-23T03:47:07.302Z,7.60
2023-09-23T03:49:36.787Z,6.67
2023-09-23T03:52:07.118Z,6.03
2023-09-23T03:54:35.665Z,7.13
2023-09-23T03:57:06.368Z,5.90
2023-09-23T03:59:36.454Z,6.17
2023-09-23T04:02:06.797Z,6.37
2023-09-23T04:04:39.309Z,5.87
2023-09-23T04:07:09.278Z,6.17
2023-09-23T04:09:37.378Z,6.00
2023-09-23T04:12:07.868Z,6.50
2023-09-23T04:14:36.027Z,6.07
2023-09-23T04:17:04.343Z,6.53
2023-09-23T04:19:32.906Z,6.10
2023-09-23T04:22:02.350Z,7.47
2023-09-23T04:24:30.941Z,6.40
2023-09-23T04:27:00.767Z,6.00
2023-09-23T04:29:31.334Z,6.83
2023-09-23T04:32:00.435Z,6.97
2023-09-23T04:34:28.854Z,7.63
2023-09-23T04:36:58.165Z,8.30
2023-09-23T04:39:27.959Z,8.53
2023-09-23T04:41:56.287Z,9.53
2023-09-23T04:44:25.894Z,12.97
2023-09-23T04:46:55.024Z,29.43
2023-09-23T04:49:23.753Z,27.83
2023-09-23T04:51:52.268Z,36.80
2023-09-23T04:54:20.491Z,46.60
2023-09-23T04:56:50.400Z,41.40
2023-09-23T04:59:18.454Z,61.40
2023-09-23T05:01:47.694Z,53.10
2023-09-23T05:04:16.812Z,44.83
2023-09-23T05:06:45.256Z,54.27
2023-09-23T05:09:13.628Z,56.20
2023-09-23T05:11:41.684Z,57.27
2023-09-23T05:14:11.508Z,61.43
2023-09-23T05:16:39.907Z,47.20
2023-09-23T05:19:09.483Z,40.27
2023-09-23T05:21:38.014Z,27.47
2023-09-23T05:24:07.785Z,39.63
2023-09-23T05:26:36.509Z,32.27
2023-09-23T05:29:06.381Z,32.43
2023-09-23T05:31:37.968Z,23.00
2023-09-23T05:34:08.007Z,15.07
2023-09-23T05:36:36.283Z,18.43
2023-09-23T05:39:09.765Z,8.93
2023-09-23T05:41:37.669Z,7.00
2023-09-23T05:44:06.208Z,10.37
2023-09-23T05:46:39.327Z,6.40
2023-09-23T05:49:10.368Z,7.90
2023-09-23T05:51:38.357Z,7.10
2023-09-23T05:54:06.683Z,7.30
2023-09-23T05:56:34.902Z,7.03
2023-09-23T05:59:03.149Z,7.27
2023-09-23T06:01:31.299Z,6.57
2023-09-23T06:04:00.929Z,5.97
2023-09-23T06:06:29.296Z,7.77
2023-09-23T06:08:58.486Z,6.73
2023-09-23T06:11:26.825Z,7.83
2023-09-23T06:13:55.258Z,9.00
2023-09-23T06:16:23.962Z,8.60
2023-09-23T06:18:52.247Z,7.43
2023-09-23T06:21:21.921Z,8.48
2023-09-23T06:23:50.168Z,7.63
2023-09-23T06:26:18.509Z,7.63
2023-09-23T06:28:46.906Z,8.63
2023-09-23T06:31:15.318Z,7.50
2023-09-23T06:33:43.648Z,6.30
2023-09-23T06:36:11.952Z,6.82
2023-09-23T06:38:42.058Z,6.53
2023-09-23T06:41:11.309Z,6.43
2023-09-23T06:43:41.400Z,6.28
2023-09-23T06:46:09.873Z,6.43
2023-09-23T06:48:38.357Z,5.75
2023-09-23T06:51:06.411Z,6.00
2023-09-23T06:53:34.449Z,6.63
2023-09-23T06:56:04.608Z,7.03
2023-09-23T06:58:32.701Z,6.30
2023-09-23T07:01:01.072Z,6.68
2023-09-23T07:03:30.810Z,5.93
2023-09-23T07:05:58.859Z,7.43
2023-09-23T07:08:27.002Z,6.45
2023-09-23T07:10:56.489Z,6.35
2023-09-23T07:13:26.052Z,7.32
2023-09-23T07:15:54.405Z,5.72
2023-09-23T07:18:22.484Z,7.18
2023-09-23T07:20:50.592Z,5.63
2023-09-23T07:23:18.822Z,5.75
2023-09-23T07:25:46.984Z,6.88
2023-09-23T07:28:18.123Z,7.30
2023-09-23T07:30:47.670Z,6.97
2023-09-23T07:33:15.885Z,6.80
2023-09-23T07:35:44.397Z,5.72
2023-09-23T07:38:12.894Z,7.00
2023-09-23T07:40:41.906Z,7.07
2023-09-23T07:43:10.463Z,6.90
2023-09-23T07:45:39.912Z,6.93
2023-09-23T07:48:10.561Z,6.35
2023-09-23T07:50:39.183Z,5.88
2023-09-23T07:53:07.267Z,7.00
2023-09-23T07:55:35.521Z,6.25
2023-09-23T07:58:04.055Z,6.55
2023-09-23T08:00:32.077Z,5.80
2023-09-23T08:03:00.390Z,6.00
2023-09-23T08:05:31.023Z,5.65
2023-09-23T08:07:59.258Z,6.15
2023-09-23T08:10:27.534Z,6.40
2023-09-23T08:12:56.185Z,6.22
2023-09-23T08:15:24.349Z,8.50
2023-09-23T08:17:52.592Z,6.25
2023-09-23T08:20:21.642Z,5.95
2023-09-23T08:22:51.927Z,5.60
2023-09-23T08:25:20.666Z,6.05
2023-09-23T08:27:49.191Z,5.75
2023-09-23T08:30:18.303Z,5.43
2023-09-23T08:32:47.243Z,5.93
2023-09-23T08:35:15.981Z,6.18
2023-09-23T08:37:47.360Z,5.20
2023-09-23T08:40:20.875Z,5.68
2023-09-23T08:42:53.935Z,6.47
2023-09-23T08:45:27.662Z,4.78
2023-09-23T08:47:56.672Z,5.03
2023-09-23T08:50:26.392Z,5.20
2023-09-23T08:52:54.823Z,5.53
2023-09-23T08:55:26.148Z,5.85
2023-09-23T08:57:54.228Z,5.78
2023-09-23T09:00:22.506Z,5.53
2023-09-23T09:02:52.525Z,5.78
2023-09-23T09:05:22.168Z,5.85
2023-09-23T09:07:50.668Z,5.90
2023-09-23T09:10:19.378Z,5.50
2023-09-23T09:12:50.528Z,5.45
2023-09-23T09:15:19.580Z,5.15
2023-09-23T09:17:47.674Z,4.85
2023-09-23T09:20:16.141Z,5.53
2023-09-23T09:22:45.556Z,5.90
2023-09-23T09:25:15.304Z,6.70
2023-09-23T09:27:45.506Z,6.75
2023-09-23T09:30:15.407Z,6.97
2023-09-23T09:32:44.438Z,7.22
2023-09-23T09:35:17.708Z,10.20
2023-09-23T09:37:47.760Z,8.00
2023-09-23T09:40:18.968Z,5.57
2023-09-23T09:42:55.478Z,6.18
2023-09-23T09:45:25.693Z,5.57
2023-09-23T09:47:54.721Z,5.25
2023-09-23T09:50:26.888Z,5.70
2023-09-23T09:52:55.563Z,4.95
2023-09-23T09:55:26.375Z,5.97
2023-09-23T09:57:55.959Z,6.38
2023-09-23T10:00:35.302Z,5.80
2023-09-23T10:03:07.802Z,5.45
2023-09-23T10:05:37.257Z,5.88
2023-09-23T10:08:14.683Z,4.57
2023-09-23T10:10:48.623Z,4.25
2023-09-23T10:13:18.713Z,7.45
2023-09-23T10:15:48.897Z,6.43
2023-09-23T10:18:19.851Z,6.03
2023-09-23T10:20:51.902Z,4.90
2023-09-23T10:23:22.234Z,5.55
2023-09-23T10:25:53.117Z,5.15
2023-09-23T10:28:24.482Z,5.45
2023-09-23T10:31:01.477Z,5.13
2023-09-23T10:33:32.136Z,4.35
2023-09-23T10:36:00.704Z,6.22
2023-09-23T10:38:32.108Z,4.32
2023-09-23T10:41:00.723Z,4.50
2023-09-23T10:43:31.570Z,4.70
2023-09-23T10:46:03.203Z,4.55
2023-09-23T10:48:32.745Z,5.15
2023-09-23T10:51:01.838Z,4.95
2023-09-23T10:53:31.853Z,5.82
2023-09-23T10:56:03.354Z,4.70
2023-09-23T10:58:32.828Z,4.20
2023-09-23T11:01:02.869Z,5.53
2023-09-23T11:03:31.606Z,5.13
2023-09-23T11:06:00.300Z,5.57
2023-09-23T11:08:28.669Z,5.05
2023-09-23T11:10:59.061Z,5.10
2023-09-23T11:13:28.462Z,4.60
2023-09-23T11:15:56.506Z,4.90
2023-09-23T11:18:29.580Z,4.80
2023-09-23T11:20:57.802Z,4.53
2023-09-23T11:23:31.104Z,5.20
2023-09-23T11:25:59.430Z,4.43
2023-09-23T11:28:28.794Z,5.03
2023-09-23T11:30:58.922Z,4.80
2023-09-23T11:33:28.617Z,4.80
2023-09-23T11:35:58.201Z,5.43
2023-09-23T11:38:26.472Z,5.20
2023-09-23T11:40:56.055Z,5.82
2023-09-23T11:43:26.486Z,5.20
2023-09-23T11:45:54.841Z,4.93
2023-09-23T11:48:23.113Z,5.68
2023-09-23T11:50:53.202Z,5.88
2023-09-23T11:53:21.707Z,4.97
2023-09-23T11:55:50.481Z,4.90
2023-09-23T11:58:19.154Z,5.22
2023-09-23T12:00:48.999Z,4.55
2023-09-23T12:03:17.144Z,4.90
2023-09-23T12:05:46.365Z,5.55
2023-09-23T12:08:18.459Z,4.38
2023-09-23T12:10:46.858Z,4.93
2023-09-23T12:13:15.065Z,5.53
2023-09-23T12:15:43.550Z,5.00
2023-09-23T12:18:12.656Z,5.63
2023-09-23T12:20:40.836Z,7.63
2023-09-23T12:23:09.252Z,5.47
2023-09-23T12:25:39.140Z,5.75
2023-09-23T12:28:08.190Z,5.82
2023-09-23T12:30:36.242Z,5.03
2023-09-23T12:33:04.629Z,4.65
2023-09-23T12:35:34.002Z,4.43
2023-09-23T12:38:04.219Z,4.78
2023-09-23T12:40:33.302Z,5.30
2023-09-23T12:43:03.890Z,4.60
2023-09-23T12:45:32.016Z,5.20
2023-09-23T12:48:00.515Z,4.82
2023-09-23T12:50:28.658Z,4.60
2023-09-23T12:52:56.758Z,5.15
2023-09-23T12:55:25.704Z,5.25
2023-09-23T12:57:55.105Z,5.55
2023-09-23T13:00:24.919Z,4.90
2023-09-23T13:02:53.528Z,4.55
2023-09-23T13:05:21.897Z,5.45
2023-09-23T13:07:50.214Z,5.10
2023-09-23T13:10:18.639Z,4.82
2023-09-23T13:12:46.972Z,4.38
2023-09-23T13:15:15.375Z,5.93
2023-09-23T13:17:45.960Z,4.93
2023-09-23T13:20:16.015Z,5.32
2023-09-23T13:22:44.118Z,5.65
2023-09-23T13:25:13.323Z,6.30
2023-09-23T13:27:41.251Z,5.70
2023-09-23T13:30:11.108Z,5.35
2023-09-23T13:32:42.621Z,6.88
2023-09-23T13:35:13.166Z,6.40
2023-09-23T13:37:41.797Z,6.50
2023-09-23T13:40:12.248Z,5.63
2023-09-23T13:42:40.551Z,7.85
2023-09-23T13:45:09.878Z,5.88
2023-09-23T13:47:39.633Z,5.43
2023-09-23T13:50:10.337Z,6.15
2023-09-23T13:52:40.113Z,6.18
2023-09-23T13:55:09.613Z,5.63
2023-09-23T13:57:38.053Z,4.88
2023-09-23T14:00:08.438Z,6.30
2023-09-23T14:02:35.997Z,6.07
2023-09-23T14:05:05.897Z,6.05
2023-09-23T14:07:33.997Z,6.63
2023-09-23T14:10:18.942Z,6.72
2023-09-23T14:12:49.387Z,5.53
2023-09-23T14:15:17.925Z,6.47
2023-09-23T14:17:47.634Z,6.53
2023-09-23T14:20:16.145Z,5.88
2023-09-23T14:22:46.940Z,4.85
2023-09-23T14:25:18.832Z,5.32
2023-09-23T14:27:47.046Z,6.07
2023-09-23T14:30:15.536Z,5.82
2023-09-23T14:32:44.037Z,5.93
2023-09-23T14:35:12.171Z,6.75
2023-09-23T14:37:40.929Z,6.40
2023-09-23T14:40:10.482Z,6.43
2023-09-23T14:42:40.064Z,6.55
2023-09-23T14:45:10.252Z,6.28
2023-09-23T14:47:39.041Z,7.55
2023-09-23T14:50:08.178Z,7.03
2023-09-23T14:52:36.547Z,7.07
2023-09-23T14:55:06.524Z,10.07
2023-09-23T14:57:35.820Z,8.70
2023-09-23T15:00:06.498Z,7.72
2023-09-23T15:02:34.696Z,9.52
2023-09-23T15:05:02.924Z,6.10
2023-09-23T15:07:31.396Z,8.02
2023-09-23T15:09:59.800Z,6.75
2023-09-23T15:12:27.953Z,6.82
2023-09-23T15:14:56.697Z,6.20
2023-09-23T15:17:26.562Z,6.82
2023-09-23T15:19:54.522Z,6.38
2023-09-23T15:22:23.858Z,5.60
2023-09-23T15:24:53.107Z,7.30
2023-09-23T15:27:21.240Z,7.25
2023-09-23T15:29:49.763Z,7.20
2023-09-23T15:32:17.910Z,8.57
2023-09-23T15:34:47.517Z,8.60
2023-09-23T15:37:15.856Z,7.82
2023-09-23T15:39:46.040Z,7.63
2023-09-23T15:42:15.422Z,7.70
2023-09-23T15:44:44.080Z,8.10
2023-09-23T15:47:12.375Z,7.68
2023-09-23T15:49:42.789Z,8.35
2023-09-23T15:52:16.124Z,7.13
2023-09-23T15:54:44.504Z,8.60
2023-09-23T15:57:13.327Z,9.80
2023-09-23T15:59:42.290Z,7.32
2023-09-23T16:02:10.726Z,7.82
2023-09-23T16:04:41.166Z,7.32
2023-09-23T16:07:12.622Z,7.88
2023-09-23T16:09:42.193Z,6.55
2023-09-23T16:12:10.576Z,7.78
2023-09-23T16:14:40.334Z,9.10
2023-09-23T16:17:08.707Z,7.45
2023-09-23T16:19:37.708Z,8.02
2023-09-23T16:22:05.841Z,8.02
2023-09-23T16:24:33.849Z,7.03
2023-09-23T16:27:03.184Z,7.38
2023-09-23T16:29:31.351Z,6.63
2023-09-23T16:31:59.627Z,7.65
2023-09-23T16:34:27.606Z,6.68
2023-09-23T16:36:57.048Z,9.38
2023-09-23T16:39:25.141Z,9.15
2023-09-23T16:41:53.625Z,8.30
2023-09-23T16:44:24.631Z,7.57
2023-09-23T16:46:55.371Z,7.63
2023-09-23T16:49:24.102Z,6.85
2023-09-23T16:51:52.348Z,8.60
2023-09-23T16:54:20.416Z,7.57
2023-09-23T16:56:49.094Z,7.07
2023-09-23T16:59:17.419Z,6.95
2023-09-23T17:01:48.165Z,5.15
2023-09-23T17:04:16.329Z,6.35
2023-09-23T17:06:44.341Z,7.43
2023-09-23T17:09:14.844Z,5.88
2023-09-23T17:11:43.095Z,6.72
2023-09-23T17:14:11.144Z,6.55
2023-09-23T17:16:39.193Z,5.80
2023-09-23T17:19:08.522Z,5.63
2023-09-23T17:21:36.542Z,6.68
2023-09-23T17:24:05.113Z,5.15
2023-09-23T17:26:33.169Z,5.70
2023-09-23T17:29:02.842Z,9.30
2023-09-23T17:31:31.028Z,8.48
2023-09-23T17:33:59.313Z,7.07
2023-09-23T17:36:30.096Z,7.43
2023-09-23T17:38:58.780Z,8.90
2023-09-23T17:41:27.164Z,8.77
2023-09-23T17:43:56.681Z,11.18
2023-09-23T17:46:25.304Z,9.27
2023-09-23T17:48:54.263Z,5.35
2023-09-23T17:51:22.513Z,5.55
2023-09-23T17:53:52.040Z,6.03
2023-09-23T17:56:22.502Z,7.18
2023-09-23T17:58:50.867Z,6.15
2023-09-23T18:01:19.130Z,5.30
2023-09-23T18:03:47.493Z,6.05
2023-09-23T18:06:17.822Z,6.13
2023-09-23T18:08:46.316Z,5.47
2023-09-23T18:11:15.900Z,5.38
2023-09-23T18:13:43.970Z,4.65
2023-09-23T18:16:12.015Z,5.28
2023-09-23T18:18:44.658Z,5.10
2023-09-23T18:21:15.172Z,5.82
2023-09-23T18:23:45.525Z,3.78
2023-09-23T18:26:16.201Z,4.75
2023-09-23T18:28:45.453Z,5.65
2023-09-23T18:31:13.446Z,5.13
2023-09-23T18:33:42.452Z,4.85
2023-09-23T18:36:12.105Z,4.85
2023-09-23T18:38:40.321Z,5.47
2023-09-23T18:41:08.548Z,7.15
2023-09-23T18:43:38.082Z,6.95
2023-09-23T18:46:06.280Z,6.13
2023-09-23T18:48:34.478Z,6.45
2023-09-23T18:51:02.729Z,6.45
2023-09-23T18:53:32.687Z,6.55
2023-09-23T18:56:02.890Z,11.05
2023-09-23T18:58:30.880Z,10.93
2023-09-23T19:01:04.067Z,9.80
2023-09-23T19:03:32.555Z,7.85
2023-09-23T19:06:00.993Z,6.63
2023-09-23T19:08:29.122Z,6.15
2023-09-23T19:10:57.561Z,6.32
2023-09-23T19:13:25.769Z,6.68
2023-09-23T19:15:55.073Z,5.85
2023-09-23T19:18:24.478Z,6.00
2023-09-23T19:20:52.727Z,5.72
2023-09-23T19:23:20.951Z,4.43
2023-09-23T19:25:53.238Z,4.93
2023-09-23T19:28:22.850Z,6.35
2023-09-23T19:30:51.198Z,6.30
2023-09-23T19:33:19.510Z,5.75
2023-09-23T19:35:49.899Z,5.50
2023-09-23T19:38:18.406Z,5.82
2023-09-23T19:40:47.253Z,6.88
2023-09-23T19:43:17.601Z,7.28
2023-09-23T19:45:45.605Z,8.85
2023-09-23T19:48:13.804Z,7.78
2023-09-23T19:50:43.914Z,7.55
2023-09-23T19:53:13.959Z,6.50
2023-09-23T19:55:42.164Z,6.30
2023-09-23T19:58:12.677Z,7.32
2023-09-23T20:00:40.790Z,6.35
2023-09-23T20:03:09.877Z,5.00
2023-09-23T20:05:38.456Z,6.22
2023-09-23T20:08:06.987Z,4.80
2023-09-23T20:10:38.150Z,4.45
2023-09-23T20:13:06.753Z,5.45
2023-09-23T20:15:35.273Z,4.93
2023-09-23T20:18:05.910Z,5.88
2023-09-23T20:20:35.533Z,5.10
2023-09-23T20:23:04.369Z,5.43
2023-09-23T20:25:33.019Z,5.18
2023-09-23T20:28:02.621Z,5.45
2023-09-23T20:30:30.892Z,5.45
2023-09-23T20:32:59.477Z,5.32
2023-09-23T20:35:27.941Z,5.53
2023-09-23T20:37:56.218Z,4.85
2023-09-23T20:40:25.040Z,6.63
2023-09-23T20:42:53.787Z,5.82
2023-09-23T20:45:23.636Z,5.03
2023-09-23T20:47:51.918Z,4.45
2023-09-23T20:50:20.100Z,5.82
2023-09-23T20:52:48.674Z,4.85
2023-09-23T20:55:17.477Z,4.95
2023-09-23T20:57:46.603Z,4.65
2023-09-23T21:00:16.091Z,6.38
2023-09-23T21:02:46.363Z,4.82
2023-09-23T21:05:15.392Z,4.80
2023-09-23T21:07:43.752Z,5.72
2023-09-23T21:10:13.160Z,6.00
2023-09-23T21:12:41.864Z,5.15
2023-09-23T21:15:15.824Z,5.22
2023-09-23T21:17:46.287Z,5.80
2023-09-23T21:20:15.932Z,5.15
2023-09-23T21:22:46.483Z,5.22
2023-09-23T21:25:14.617Z,5.22
2023-09-23T21:27:42.773Z,5.50
2023-09-23T21:30:13.114Z,6.00
2023-09-23T21:32:41.570Z,5.50
2023-09-23T21:35:14.787Z,4.28
2023-09-23T21:37:44.246Z,5.90
2023-09-23T21:40:12.971Z,4.93
2023-09-23T21:42:40.956Z,5.68
2023-09-23T21:45:12.600Z,5.68
2023-09-23T21:47:40.837Z,5.78
2023-09-23T21:50:11.361Z,4.55
2023-09-23T21:52:40.089Z,5.15
2023-09-23T21:55:09.340Z,5.13
2023-09-23T21:57:38.128Z,5.25
2023-09-23T22:00:23.817Z,6.38
2023-09-23T22:02:51.937Z,4.85
2023-09-23T22:05:22.548Z,6.32
2023-09-23T22:07:50.519Z,5.32
2023-09-23T22:10:18.921Z,5.07
2023-09-23T22:12:47.593Z,5.35
2023-09-23T22:15:15.875Z,5.05
2023-09-23T22:17:44.627Z,4.78
2023-09-23T22:20:16.541Z,5.32
2023-09-23T22:22:47.401Z,4.85
2023-09-23T22:25:16.538Z,6.38
2023-09-23T22:27:45.059Z,5.32
2023-09-23T22:30:14.296Z,4.82
2023-09-23T22:32:43.194Z,5.57
2023-09-23T22:35:14.503Z,5.95
2023-09-23T22:37:43.155Z,5.10
2023-09-23T22:40:15.471Z,6.38
2023-09-23T22:42:44.001Z,5.15
2023-09-23T22:45:17.687Z,6.35
2023-09-23T22:47:52.051Z,5.65
2023-09-23T22:50:22.734Z,5.25
2023-09-23T22:52:51.445Z,5.32
2023-09-23T22:55:21.213Z,5.68
2023-09-23T22:57:49.998Z,7.40
2023-09-23T23:00:22.973Z,5.67
2023-09-23T23:02:51.408Z,5.27
2023-09-23T23:05:19.903Z,6.93
2023-09-23T23:07:51.456Z,5.97
2023-09-23T23:10:21.971Z,5.47
2023-09-23T23:12:50.166Z,5.72
2023-09-23T23:15:22.234Z,5.97
2023-09-23T23:17:52.087Z,5.20
2023-09-23T23:20:24.873Z,6.33
2023-09-23T23:22:53.833Z,5.57
2023-09-23T23:25:24.652Z,5.78
2023-09-23T23:27:52.961Z,5.68
2023-09-23T23:30:22.411Z,5.53
2023-09-23T23:32:53.449Z,5.47
2023-09-23T23:35:23.916Z,6.43
2023-09-23T23:37:52.827Z,6.20
2023-09-23T23:40:23.563Z,6.30
2023-09-23T23:42:53.191Z,5.60
2023-09-23T23:45:22.311Z,5.30
2023-09-23T23:47:55.040Z,5.88
2023-09-23T23:50:24.157Z,5.53
2023-09-23T23:52:52.962Z,5.65
2023-09-23T23:55:21.562Z,6.47
2023-09-23T23:57:50.119Z,5.68
